Croton Falls, NY (10519)

2:04 PM EST on February 09, 2016 (GMT -0500)
Lake Purdys | | Change Station
CLOSE
Current Station
Personal Weather Station
Location: Purdys, NY
Elevation: 312 ft
Nearby Weather Stations

Elev 312 ft 41.33 °N, 73.67 °W | Updated 14 seconds ago

Clear
Clear
33.3 °F
Feels Like 33 °F
N
0.0
Wind Variable Wind from SSE
Gusts 0.0 mph

Today
High -- | Low -- °F
--% Chance of Precip.
Yesterday
High -- | Low -- °F
Precip. -- in
Pressure 29.57 in
Visibility 10.0 miles
Clouds Few 2700 ft
Mostly Cloudy 4100 ft
Windchill 33 °F
Dew Point 17 °F
Humidity 50%
Rainfall 0.02 in
Snow Depth Not available.
6:57 AM 5:20 PM
New Moon, 2% visible
METAR KDXR 091853Z 00000KT 10SM FEW027 BKN041 00/M07 A2956 RMK AO2 SLP012 T00001072
Pressure 29.57 in
Visibility 10.0 miles
Clouds Few 2700 ft
Mostly Cloudy 4100 ft
Windchill 33 °F
Dew Point 17 °F
Humidity 50%
Rainfall 0.02 in
Snow Depth Not available.
6:57 AM 5:20 PM
New Moon, 2% visible
METAR KDXR 091853Z 00000KT 10SM FEW027 BKN041 00/M07 A2956 RMK AO2 SLP012 T00001072

10-Day Weather Forecast

Almanac

Astronomy

Feb. 09, 2016 Rise Set
Actual Time
Civil Twilight
Nautical Twilight
Astronomical Twilight
Moon
Length of Visible Light
Length of Day
Tomorrow will be .
, % of the Moon is Illuminated

Today's Extremes

State Highs State Lows

Community

WunderPhotos

Upload Photos

1,891,664 photos uploaded!

WunderBlog® & News

Nearby

Air Quality

  Air Quality AQ Index Pollutant
Not available.

Snow Depth

Station Depth Elevation

Earthquake Activity

City Distance Mag. Time & Date
Minimum magnitude displayed is 2.5.

Coastal Water Temperatures

Place Temperature

Stations

Nearby Weather Stations

Station Location Temp. Windchill Dew Point Humidity Wind Precip. Elev Updated Type
                   

Watches & Warnings

Winter Weather Advisory
Issued: 4:32 AM EST Feb. 9, 2016 – National Weather Service

... Winter Weather Advisory in effect from 6 PM this evening to
noon EST Wednesday...

The National Weather Service in Upton has issued a Winter Weather
Advisory for snow... which is in effect from 6 PM this evening to
noon EST Wednesday.

* Locations... northeast New Jersey along and north of Interstate
80... Rockland and Westchester counties in southeast New
York... and coastal Connecticut.

* Hazard types... snow.

* Accumulations... snow accumulation of 2 to 4 inches.

* Temperatures... in the upper 20s.

* Visibilities... one half mile at times.

Precautionary/preparedness actions...

A Winter Weather Advisory for snow means that periods of snow will
cause travel difficulties. Be prepared for slippery roads and
limited visibilities... and use caution while driving.



Goodman